CheckWX is a tool to help pilots better visualize weather data.  It is not intended as a substitute for an official pre-flight weather briefing.

18:35:53 UTC

ENLK METAR
Leknes Airport
Leknes, Norway
Current

46 mins ago

ENLK 221750Z 23011G26KT 190V260 6000 RA SCT018 BKN040 07/05 Q1013
Observed
Feb-22 @ 17:50 UTC
Wind
  • 230° at 11 KTS
  • Gusting to KTS
Visibility
6,003 meters
Flight Rules
MVFR
Conditions
Rain
Cloud Levels
  • Scattered at 1,800' AGL
  • Broken at 4,000' AGL
Temperature
C / 45°F
Dewpoint
C / 41°F
Humidity
87%
Altimeter
29.91" Hg
Pressure
1012.92 hPa
Previous

2 hours ago

ENLK 221650Z 25012G23KT 5000 RA SCT018 BKN040 07/06 Q1013
Observed
Feb-22 @ 16:50 UTC
Wind
  • 250° at 12 KTS
  • Gusting to KTS
Visibility
5,005 meters
Flight Rules
MVFR
Conditions
Rain
Cloud Levels
  • Scattered at 1,800' AGL
  • Broken at 4,000' AGL
Temperature
C / 45°F
Dewpoint
C / 43°F
Humidity
93%
Altimeter
29.91" Hg
Pressure
1012.92 hPa
Previous

2 hours ago

ENLK 221620Z 24010KG24T 190V270 6000 RA SCT020 BKN040 07/05 Q1013
Observed
Feb-22 @ 16:20 UTC
Visibility
6,003 meters
Flight Rules
MVFR
Conditions
Rain
Cloud Levels
  • Scattered at 2,000' AGL
  • Broken at 4,000' AGL
Temperature
C / 45°F
Dewpoint
C / 41°F
Humidity
87%
Altimeter
29.91" Hg
Pressure
1012.92 hPa